Карточка аэропорта URSS

Внимание!
Информация на этой странице в стадии наполнения.
Если вы не увидели какой-то информации, или заметили неточность - пожалуйста сообщите нам!
Спасибо!
Команда RU-STAFF
Название аэропортаСочи
Название аэропорта (англ.)Sochi
Превышение89 ft. (27.1 m.)
Координаты43°26.634', 39°56.55'
Высота перехода13000 ft
Эшелон переходаFL140 (QNH >= 1013); FL150 (QNH 977-1012); FL160 (QNH < 977)
Коды ответчика1060-1077
Зона ОрВДРостов-на-Дону РПИ (URRV)
Данные METARURSS 052130Z 04002MPS 9999 SCT013 18/17 Q1012 R02/010070 R06/010070 NOSIG RMK R06/07003MPS MT OBSC QFE758
Проноз погоды (TAF)URSS 052140Z 0521/0621 05003G09MPS 9999 BKN011 TEMPO 0521/0605 04006MPS BECMG 0605/0606 25003G09MPS FEW040 BECMG 0608/0610 28006G13MPS BECMG 0617/0619 05003G08MPS NSC
NOTAMshow/hide NOTAM
AWOS   TABLE

Информация о ВПП

ВПП Длина ВПП (м.) Покрытие Курс ВПП Частота ILS
022500Цементобетон22110.5
062890Цементобетон58111.1
202500Цементобетон202 
242890Цементобетон238 

Диспетчерские позиции

Позывной Наименование органа УВД Частота
URSS_APPСочи-Подход124.600
URSS_DELСочи-Деливери132.700
URSS_FM1119.000
URSS_GNDСочи-Руление119.000
URSS_R_APPСочи-Круг119.700
URSS_TWRСочи-Старт121.200



Спутниковое изображение